sensor_id;sensor_type;location;lat;lon;timestamp;temperature;humidity
74416;SHT31;62850;42.428;25.618;2023-06-19T00:00:19;22.14;61.01
74416;SHT31;62850;42.428;25.618;2023-06-19T00:02:46;22.14;60.90
74416;SHT31;62850;42.428;25.618;2023-06-19T00:05:12;22.13;60.97
74416;SHT31;62850;42.428;25.618;2023-06-19T00:07:38;22.17;60.83
74416;SHT31;62850;42.428;25.618;2023-06-19T00:10:05;22.16;60.74
74416;SHT31;62850;42.428;25.618;2023-06-19T00:12:32;22.10;60.79
74416;SHT31;62850;42.428;25.618;2023-06-19T00:14:59;22.14;60.67
74416;SHT31;62850;42.428;25.618;2023-06-19T00:17:25;22.14;60.56
74416;SHT31;62850;42.428;25.618;2023-06-19T00:19:54;22.09;60.46
74416;SHT31;62850;42.428;25.618;2023-06-19T00:22:20;22.14;60.46
74416;SHT31;62850;42.428;25.618;2023-06-19T00:24:46;22.20;60.22
74416;SHT31;62850;42.428;25.618;2023-06-19T00:27:13;22.24;60.38
74416;SHT31;62850;42.428;25.618;2023-06-19T00:29:39;22.35;60.24
74416;SHT31;62850;42.428;25.618;2023-06-19T00:32:05;22.37;60.14
74416;SHT31;62850;42.428;25.618;2023-06-19T00:34:32;22.43;60.39
74416;SHT31;62850;42.428;25.618;2023-06-19T00:36:59;22.41;60.51
74416;SHT31;62850;42.428;25.618;2023-06-19T00:39:26;22.40;60.90
74416;SHT31;62850;42.428;25.618;2023-06-19T00:41:53;22.36;61.03
74416;SHT31;62850;42.428;25.618;2023-06-19T00:44:19;22.26;60.96
74416;SHT31;62850;42.428;25.618;2023-06-19T00:46:45;22.17;60.45
74416;SHT31;62850;42.428;25.618;2023-06-19T00:49:12;22.10;60.33
74416;SHT31;62850;42.428;25.618;2023-06-19T00:51:39;22.08;60.35
74416;SHT31;62850;42.428;25.618;2023-06-19T00:54:05;22.02;59.86
74416;SHT31;62850;42.428;25.618;2023-06-19T00:56:32;21.95;59.98
74416;SHT31;62850;42.428;25.618;2023-06-19T00:59:01;21.96;59.88
74416;SHT31;62850;42.428;25.618;2023-06-19T01:01:32;21.99;59.69
74416;SHT31;62850;42.428;25.618;2023-06-19T01:03:58;22.03;59.37
74416;SHT31;62850;42.428;25.618;2023-06-19T01:06:27;22.14;59.14
74416;SHT31;62850;42.428;25.618;2023-06-19T01:09:08;22.21;58.74
74416;SHT31;62850;42.428;25.618;2023-06-19T01:11:41;22.23;58.71
74416;SHT31;62850;42.428;25.618;2023-06-19T01:14:14;22.28;58.42
74416;SHT31;62850;42.428;25.618;2023-06-19T01:16:42;22.28;58.36
74416;SHT31;62850;42.428;25.618;2023-06-19T01:19:10;22.39;58.24
74416;SHT31;62850;42.428;25.618;2023-06-19T01:21:36;22.33;58.17
74416;SHT31;62850;42.428;25.618;2023-06-19T01:24:02;22.35;58.33
74416;SHT31;62850;42.428;25.618;2023-06-19T01:26:29;22.26;58.46
74416;SHT31;62850;42.428;25.618;2023-06-19T01:28:56;22.23;58.35
74416;SHT31;62850;42.428;25.618;2023-06-19T01:31:33;22.26;58.51
74416;SHT31;62850;42.428;25.618;2023-06-19T01:34:01;22.33;58.27
74416;SHT31;62850;42.428;25.618;2023-06-19T01:36:28;22.46;58.67
74416;SHT31;62850;42.428;25.618;2023-06-19T01:38:57;22.43;59.37
74416;SHT31;62850;42.428;25.618;2023-06-19T01:41:24;22.39;59.32
74416;SHT31;62850;42.428;25.618;2023-06-19T01:43:51;22.44;59.40
74416;SHT31;62850;42.428;25.618;2023-06-19T01:46:17;22.44;59.34
74416;SHT31;62850;42.428;25.618;2023-06-19T01:48:44;22.53;58.85
74416;SHT31;62850;42.428;25.618;2023-06-19T01:51:09;22.49;58.72
74416;SHT31;62850;42.428;25.618;2023-06-19T01:53:35;22.49;59.24
74416;SHT31;62850;42.428;25.618;2023-06-19T01:56:01;22.53;58.75
74416;SHT31;62850;42.428;25.618;2023-06-19T01:58:27;22.36;58.89
74416;SHT31;62850;42.428;25.618;2023-06-19T02:00:52;22.37;58.77
74416;SHT31;62850;42.428;25.618;2023-06-19T02:03:18;22.37;59.04
74416;SHT31;62850;42.428;25.618;2023-06-19T02:05:44;22.44;58.54
74416;SHT31;62850;42.428;25.618;2023-06-19T02:08:09;22.36;58.31
74416;SHT31;62850;42.428;25.618;2023-06-19T02:10:36;22.40;58.46
74416;SHT31;62850;42.428;25.618;2023-06-19T02:13:02;22.40;58.56
74416;SHT31;62850;42.428;25.618;2023-06-19T02:15:29;22.46;58.70
74416;SHT31;62850;42.428;25.618;2023-06-19T02:17:56;22.44;59.30
74416;SHT31;62850;42.428;25.618;2023-06-19T02:20:23;22.51;59.20
74416;SHT31;62850;42.428;25.618;2023-06-19T02:22:52;22.54;59.27
74416;SHT31;62850;42.428;25.618;2023-06-19T02:25:18;22.53;59.19
74416;SHT31;62850;42.428;25.618;2023-06-19T02:27:45;22.53;59.71
74416;SHT31;62850;42.428;25.618;2023-06-19T02:30:12;22.54;59.54
74416;SHT31;62850;42.428;25.618;2023-06-19T02:32:38;22.53;59.53
74416;SHT31;62850;42.428;25.618;2023-06-19T02:35:08;22.54;59.63
74416;SHT31;62850;42.428;25.618;2023-06-19T02:37:34;22.49;59.89
74416;SHT31;62850;42.428;25.618;2023-06-19T02:40:03;22.46;60.33
74416;SHT31;62850;42.428;25.618;2023-06-19T02:42:29;22.44;60.37
74416;SHT31;62850;42.428;25.618;2023-06-19T02:44:55;22.41;60.62
74416;SHT31;62850;42.428;25.618;2023-06-19T02:47:30;22.37;60.51
74416;SHT31;62850;42.428;25.618;2023-06-19T02:50:00;22.24;60.55
74416;SHT31;62850;42.428;25.618;2023-06-19T02:52:26;22.19;60.82
74416;SHT31;62850;42.428;25.618;2023-06-19T02:54:52;22.12;60.94
74416;SHT31;62850;42.428;25.618;2023-06-19T02:57:18;22.12;60.94
74416;SHT31;62850;42.428;25.618;2023-06-19T02:59:44;22.09;61.24
74416;SHT31;62850;42.428;25.618;2023-06-19T03:02:13;21.99;61.78
74416;SHT31;62850;42.428;25.618;2023-06-19T03:04:40;21.96;61.80
74416;SHT31;62850;42.428;25.618;2023-06-19T03:07:06;21.95;61.89
74416;SHT31;62850;42.428;25.618;2023-06-19T03:09:32;21.89;62.00
74416;SHT31;62850;42.428;25.618;2023-06-19T03:11:59;21.89;62.38
74416;SHT31;62850;42.428;25.618;2023-06-19T03:14:25;21.89;62.41
74416;SHT31;62850;42.428;25.618;2023-06-19T03:16:51;21.92;62.72
74416;SHT31;62850;42.428;25.618;2023-06-19T03:19:17;21.95;62.03
74416;SHT31;62850;42.428;25.618;2023-06-19T03:21:43;21.96;61.55
74416;SHT31;62850;42.428;25.618;2023-06-19T03:24:10;22.00;62.22
74416;SHT31;62850;42.428;25.618;2023-06-19T03:26:36;22.02;62.48
74416;SHT31;62850;42.428;25.618;2023-06-19T03:29:02;22.02;62.83
74416;SHT31;62850;42.428;25.618;2023-06-19T03:31:28;22.03;62.29
74416;SHT31;62850;42.428;25.618;2023-06-19T03:33:54;22.05;62.98
74416;SHT31;62850;42.428;25.618;2023-06-19T03:36:20;22.02;63.57
74416;SHT31;62850;42.428;25.618;2023-06-19T03:38:47;22.08;63.15
74416;SHT31;62850;42.428;25.618;2023-06-19T03:41:13;22.06;62.95
74416;SHT31;62850;42.428;25.618;2023-06-19T03:43:39;22.09;63.01
74416;SHT31;62850;42.428;25.618;2023-06-19T03:46:05;22.03;62.14
74416;SHT31;62850;42.428;25.618;2023-06-19T03:48:31;22.05;62.30
74416;SHT31;62850;42.428;25.618;2023-06-19T03:50:58;22.10;63.32
74416;SHT31;62850;42.428;25.618;2023-06-19T03:53:24;22.13;62.28
74416;SHT31;62850;42.428;25.618;2023-06-19T03:55:50;22.09;62.29
74416;SHT31;62850;42.428;25.618;2023-06-19T03:58:17;22.00;62.48
74416;SHT31;62850;42.428;25.618;2023-06-19T04:00:43;21.98;62.73
74416;SHT31;62850;42.428;25.618;2023-06-19T04:03:10;22.00;62.33
74416;SHT31;62850;42.428;25.618;2023-06-19T04:05:35;21.95;62.33
74416;SHT31;62850;42.428;25.618;2023-06-19T04:08:01;21.99;62.03
74416;SHT31;62850;42.428;25.618;2023-06-19T04:10:28;22.05;62.09
74416;SHT31;62850;42.428;25.618;2023-06-19T04:12:54;22.10;61.81
74416;SHT31;62850;42.428;25.618;2023-06-19T04:15:21;22.10;61.42
74416;SHT31;62850;42.428;25.618;2023-06-19T04:17:48;22.13;61.20
74416;SHT31;62850;42.428;25.618;2023-06-19T04:20:15;22.17;61.11
74416;SHT31;62850;42.428;25.618;2023-06-19T04:22:42;22.21;60.76
74416;SHT31;62850;42.428;25.618;2023-06-19T04:25:10;22.19;61.02
74416;SHT31;62850;42.428;25.618;2023-06-19T04:27:36;22.21;61.02
74416;SHT31;62850;42.428;25.618;2023-06-19T04:30:05;22.24;61.27
74416;SHT31;62850;42.428;25.618;2023-06-19T04:32:33;22.21;61.18
74416;SHT31;62850;42.428;25.618;2023-06-19T04:35:01;22.23;61.47
74416;SHT31;62850;42.428;25.618;2023-06-19T04:37:28;22.37;61.02
74416;SHT31;62850;42.428;25.618;2023-06-19T04:39:54;22.41;61.13
74416;SHT31;62850;42.428;25.618;2023-06-19T04:42:21;22.40;61.55
74416;SHT31;62850;42.428;25.618;2023-06-19T04:44:48;22.51;62.32
74416;SHT31;62850;42.428;25.618;2023-06-19T04:47:16;22.53;63.00
74416;SHT31;62850;42.428;25.618;2023-06-19T04:49:42;22.61;63.07
74416;SHT31;62850;42.428;25.618;2023-06-19T04:52:09;22.67;63.14
74416;SHT31;62850;42.428;25.618;2023-06-19T04:54:35;22.67;62.80
74416;SHT31;62850;42.428;25.618;2023-06-19T04:57:01;22.50;62.13
74416;SHT31;62850;42.428;25.618;2023-06-19T04:59:27;22.63;62.33
74416;SHT31;62850;42.428;25.618;2023-06-19T05:01:53;22.71;62.44
74416;SHT31;62850;42.428;25.618;2023-06-19T05:04:22;22.74;62.43
74416;SHT31;62850;42.428;25.618;2023-06-19T05:06:49;22.70;61.44
74416;SHT31;62850;42.428;25.618;2023-06-19T05:09:17;22.72;61.12
74416;SHT31;62850;42.428;25.618;2023-06-19T05:11:43;22.77;61.13
74416;SHT31;62850;42.428;25.618;2023-06-19T05:14:10;22.71;60.97
74416;SHT31;62850;42.428;25.618;2023-06-19T05:16:36;22.79;61.82
74416;SHT31;62850;42.428;25.618;2023-06-19T05:19:02;22.75;61.00
74416;SHT31;62850;42.428;25.618;2023-06-19T05:21:29;22.65;61.50
74416;SHT31;62850;42.428;25.618;2023-06-19T05:23:56;22.74;62.28
74416;SHT31;62850;42.428;25.618;2023-06-19T05:26:22;22.81;61.71
74416;SHT31;62850;42.428;25.618;2023-06-19T05:28:49;22.87;61.25
74416;SHT31;62850;42.428;25.618;2023-06-19T05:31:16;22.91;60.84
74416;SHT31;62850;42.428;25.618;2023-06-19T05:33:44;22.95;60.23
74416;SHT31;62850;42.428;25.618;2023-06-19T05:36:10;22.98;59.55
74416;SHT31;62850;42.428;25.618;2023-06-19T05:38:36;23.04;59.89
74416;SHT31;62850;42.428;25.618;2023-06-19T05:41:02;23.15;60.18
74416;SHT31;62850;42.428;25.618;2023-06-19T05:43:29;23.15;59.73
74416;SHT31;62850;42.428;25.618;2023-06-19T05:45:56;23.20;57.82
74416;SHT31;62850;42.428;25.618;2023-06-19T05:48:24;23.30;58.19
74416;SHT31;62850;42.428;25.618;2023-06-19T05:50:51;23.38;58.67
74416;SHT31;62850;42.428;25.618;2023-06-19T05:53:18;23.47;59.52
74416;SHT31;62850;42.428;25.618;2023-06-19T05:55:45;23.56;60.20
74416;SHT31;62850;42.428;25.618;2023-06-19T05:58:11;23.56;61.56
74416;SHT31;62850;42.428;25.618;2023-06-19T06:00:36;23.60;60.50
74416;SHT31;62850;42.428;25.618;2023-06-19T06:03:02;23.62;61.41
74416;SHT31;62850;42.428;25.618;2023-06-19T06:05:29;23.76;61.94
74416;SHT31;62850;42.428;25.618;2023-06-19T06:07:55;23.81;61.61
74416;SHT31;62850;42.428;25.618;2023-06-19T06:10:22;23.90;61.61
74416;SHT31;62850;42.428;25.618;2023-06-19T06:12:49;23.86;62.29
74416;SHT31;62850;42.428;25.618;2023-06-19T06:15:15;23.88;60.21
74416;SHT31;62850;42.428;25.618;2023-06-19T06:17:41;23.86;62.95
74416;SHT31;62850;42.428;25.618;2023-06-19T06:20:07;23.87;61.90
74416;SHT31;62850;42.428;25.618;2023-06-19T06:22:39;23.92;62.06
74416;SHT31;62850;42.428;25.618;2023-06-19T06:25:05;24.03;61.65
74416;SHT31;62850;42.428;25.618;2023-06-19T06:27:32;24.11;61.61
74416;SHT31;62850;42.428;25.618;2023-06-19T06:29:58;24.15;61.23
74416;SHT31;62850;42.428;25.618;2023-06-19T06:32:24;24.27;59.90
74416;SHT31;62850;42.428;25.618;2023-06-19T06:34:52;24.29;59.80
74416;SHT31;62850;42.428;25.618;2023-06-19T06:37:18;24.31;58.47
74416;SHT31;62850;42.428;25.618;2023-06-19T06:39:51;24.36;58.35
74416;SHT31;62850;42.428;25.618;2023-06-19T06:42:17;24.44;59.01
74416;SHT31;62850;42.428;25.618;2023-06-19T06:44:43;24.44;59.64
74416;SHT31;62850;42.428;25.618;2023-06-19T06:47:10;24.44;59.35
74416;SHT31;62850;42.428;25.618;2023-06-19T06:49:35;24.51;58.55
74416;SHT31;62850;42.428;25.618;2023-06-19T06:52:04;24.56;58.93
74416;SHT31;62850;42.428;25.618;2023-06-19T06:54:31;24.64;58.72
74416;SHT31;62850;42.428;25.618;2023-06-19T06:56:58;24.75;58.25
74416;SHT31;62850;42.428;25.618;2023-06-19T06:59:25;24.83;57.31
74416;SHT31;62850;42.428;25.618;2023-06-19T07:01:52;24.85;55.07
74416;SHT31;62850;42.428;25.618;2023-06-19T07:04:18;24.86;55.29
74416;SHT31;62850;42.428;25.618;2023-06-19T07:06:45;24.96;55.10
74416;SHT31;62850;42.428;25.618;2023-06-19T07:09:11;25.02;53.47
74416;SHT31;62850;42.428;25.618;2023-06-19T07:11:37;25.02;52.88
74416;SHT31;62850;42.428;25.618;2023-06-19T07:14:03;25.09;53.05
74416;SHT31;62850;42.428;25.618;2023-06-19T07:16:29;25.22;53.51
74416;SHT31;62850;42.428;25.618;2023-06-19T07:18:55;25.22;53.61
74416;SHT31;62850;42.428;25.618;2023-06-19T07:21:21;25.33;53.98
74416;SHT31;62850;42.428;25.618;2023-06-19T07:23:47;25.54;53.40
74416;SHT31;62850;42.428;25.618;2023-06-19T07:26:14;25.72;54.73
74416;SHT31;62850;42.428;25.618;2023-06-19T07:28:41;25.88;53.47
74416;SHT31;62850;42.428;25.618;2023-06-19T07:31:07;26.02;53.10
74416;SHT31;62850;42.428;25.618;2023-06-19T07:33:33;25.98;50.85
74416;SHT31;62850;42.428;25.618;2023-06-19T07:36:00;26.06;51.06
74416;SHT31;62850;42.428;25.618;2023-06-19T07:38:27;26.16;52.23
74416;SHT31;62850;42.428;25.618;2023-06-19T07:40:53;26.29;51.48
74416;SHT31;62850;42.428;25.618;2023-06-19T07:43:19;26.44;51.03
74416;SHT31;62850;42.428;25.618;2023-06-19T07:45:45;26.54;51.69
74416;SHT31;62850;42.428;25.618;2023-06-19T07:48:11;26.63;52.05
74416;SHT31;62850;42.428;25.618;2023-06-19T07:50:37;26.71;51.82
74416;SHT31;62850;42.428;25.618;2023-06-19T07:53:02;26.84;52.08
74416;SHT31;62850;42.428;25.618;2023-06-19T07:55:28;27.00;51.74
74416;SHT31;62850;42.428;25.618;2023-06-19T07:57:54;27.14;50.75
74416;SHT31;62850;42.428;25.618;2023-06-19T08:00:26;27.31;50.62
74416;SHT31;62850;42.428;25.618;2023-06-19T08:02:51;27.32;49.44
74416;SHT31;62850;42.428;25.618;2023-06-19T08:05:17;27.24;50.91
74416;SHT31;62850;42.428;25.618;2023-06-19T08:07:43;27.46;50.58
74416;SHT31;62850;42.428;25.618;2023-06-19T08:10:09;27.29;50.94
74416;SHT31;62850;42.428;25.618;2023-06-19T08:12:35;27.21;50.53
74416;SHT31;62850;42.428;25.618;2023-06-19T08:15:01;27.08;51.52
74416;SHT31;62850;42.428;25.618;2023-06-19T08:17:26;27.04;51.07
74416;SHT31;62850;42.428;25.618;2023-06-19T08:19:52;26.92;51.26
74416;SHT31;62850;42.428;25.618;2023-06-19T08:22:19;26.76;50.52
74416;SHT31;62850;42.428;25.618;2023-06-19T08:24:44;26.69;51.53
74416;SHT31;62850;42.428;25.618;2023-06-19T08:27:10;26.57;52.53
74416;SHT31;62850;42.428;25.618;2023-06-19T08:29:35;26.50;52.50
74416;SHT31;62850;42.428;25.618;2023-06-19T08:32:01;26.76;52.07
74416;SHT31;62850;42.428;25.618;2023-06-19T08:34:27;27.15;51.25
74416;SHT31;62850;42.428;25.618;2023-06-19T08:36:54;27.50;49.86
74416;SHT31;62850;42.428;25.618;2023-06-19T08:39:20;27.93;49.00
74416;SHT31;62850;42.428;25.618;2023-06-19T08:41:47;28.29;48.68
74416;SHT31;62850;42.428;25.618;2023-06-19T08:44:14;28.59;48.57
74416;SHT31;62850;42.428;25.618;2023-06-19T08:46:40;28.96;46.26
74416;SHT31;62850;42.428;25.618;2023-06-19T08:49:08;29.20;46.20
74416;SHT31;62850;42.428;25.618;2023-06-19T08:51:36;29.50;45.09
74416;SHT31;62850;42.428;25.618;2023-06-19T08:54:03;29.70;45.10
74416;SHT31;62850;42.428;25.618;2023-06-19T08:56:31;29.53;45.43
74416;SHT31;62850;42.428;25.618;2023-06-19T09:01:35;29.07;46.56
74416;SHT31;62850;42.428;25.618;2023-06-19T09:04:08;29.34;47.12
74416;SHT31;62850;42.428;25.618;2023-06-19T09:06:34;29.25;45.70
74416;SHT31;62850;42.428;25.618;2023-06-19T09:09:04;28.91;46.77
74416;SHT31;62850;42.428;25.618;2023-06-19T09:11:36;28.62;48.02
74416;SHT31;62850;42.428;25.618;2023-06-19T09:14:05;28.48;47.42
74416;SHT31;62850;42.428;25.618;2023-06-19T09:16:40;28.29;48.97
74416;SHT31;62850;42.428;25.618;2023-06-19T09:19:06;28.29;49.20
74416;SHT31;62850;42.428;25.618;2023-06-19T09:21:35;28.62;48.70
74416;SHT31;62850;42.428;25.618;2023-06-19T09:24:07;28.59;47.80
74416;SHT31;62850;42.428;25.618;2023-06-19T09:26:34;28.37;48.98
74416;SHT31;62850;42.428;25.618;2023-06-19T09:29:14;28.33;48.95
74416;SHT31;62850;42.428;25.618;2023-06-19T09:31:41;28.21;49.63
74416;SHT31;62850;42.428;25.618;2023-06-19T09:34:08;28.08;49.03
74416;SHT31;62850;42.428;25.618;2023-06-19T09:36:35;27.99;50.51
74416;SHT31;62850;42.428;25.618;2023-06-19T09:39:02;27.97;50.72
74416;SHT31;62850;42.428;25.618;2023-06-19T09:41:29;27.85;49.31
74416;SHT31;62850;42.428;25.618;2023-06-19T09:43:55;27.82;48.25
74416;SHT31;62850;42.428;25.618;2023-06-19T09:46:29;27.92;49.24
74416;SHT31;62850;42.428;25.618;2023-06-19T09:48:58;28.41;50.22
74416;SHT31;62850;42.428;25.618;2023-06-19T09:51:31;28.83;47.81
74416;SHT31;62850;42.428;25.618;2023-06-19T09:53:59;29.25;47.16
74416;SHT31;62850;42.428;25.618;2023-06-19T09:56:28;29.53;47.57
74416;SHT31;62850;42.428;25.618;2023-06-19T09:58:56;29.30;46.76
74416;SHT31;62850;42.428;25.618;2023-06-19T10:01:29;29.23;46.63
74416;SHT31;62850;42.428;25.618;2023-06-19T10:04:06;29.02;46.95
74416;SHT31;62850;42.428;25.618;2023-06-19T10:06:32;28.89;47.20
74416;SHT31;62850;42.428;25.618;2023-06-19T10:09:06;28.79;46.64
74416;SHT31;62850;42.428;25.618;2023-06-19T10:11:54;28.58;46.73
74416;SHT31;62850;42.428;25.618;2023-06-19T10:14:21;28.71;47.69
74416;SHT31;62850;42.428;25.618;2023-06-19T10:16:48;28.96;47.02
74416;SHT31;62850;42.428;25.618;2023-06-19T10:19:20;29.20;48.00
74416;SHT31;62850;42.428;25.618;2023-06-19T10:21:48;29.26;45.61
74416;SHT31;62850;42.428;25.618;2023-06-19T10:24:19;29.57;45.44
74416;SHT31;62850;42.428;25.618;2023-06-19T10:27:01;29.98;45.77
74416;SHT31;62850;42.428;25.618;2023-06-19T10:29:38;29.84;46.11
74416;SHT31;62850;42.428;25.618;2023-06-19T10:32:05;30.08;43.37
74416;SHT31;62850;42.428;25.618;2023-06-19T10:34:35;30.35;45.39
74416;SHT31;62850;42.428;25.618;2023-06-19T10:37:01;30.43;44.02
74416;SHT31;62850;42.428;25.618;2023-06-19T10:39:27;30.09;44.51
74416;SHT31;62850;42.428;25.618;2023-06-19T10:41:53;29.65;44.94
74416;SHT31;62850;42.428;25.618;2023-06-19T10:44:23;29.33;45.28
74416;SHT31;62850;42.428;25.618;2023-06-19T10:46:50;29.30;45.32
74416;SHT31;62850;42.428;25.618;2023-06-19T10:49:18;29.13;44.32
74416;SHT31;62850;42.428;25.618;2023-06-19T10:51:45;29.00;45.56
74416;SHT31;62850;42.428;25.618;2023-06-19T10:54:15;29.10;45.64
74416;SHT31;62850;42.428;25.618;2023-06-19T10:56:41;29.57;45.54
74416;SHT31;62850;42.428;25.618;2023-06-19T10:59:09;29.84;44.76
74416;SHT31;62850;42.428;25.618;2023-06-19T11:01:38;30.36;44.81
74416;SHT31;62850;42.428;25.618;2023-06-19T11:04:09;30.25;44.86
74416;SHT31;62850;42.428;25.618;2023-06-19T11:06:36;30.15;43.67
74416;SHT31;62850;42.428;25.618;2023-06-19T11:09:02;29.98;44.55
74416;SHT31;62850;42.428;25.618;2023-06-19T11:11:47;29.80;45.35
74416;SHT31;62850;42.428;25.618;2023-06-19T11:14:14;29.77;44.21
74416;SHT31;62850;42.428;25.618;2023-06-19T11:16:43;30.04;44.33
74416;SHT31;62850;42.428;25.618;2023-06-19T11:19:18;30.19;43.19
74416;SHT31;62850;42.428;25.618;2023-06-19T11:21:53;29.91;44.28
74416;SHT31;62850;42.428;25.618;2023-06-19T11:24:22;30.08;44.63
74416;SHT31;62850;42.428;25.618;2023-06-19T11:26:50;30.26;45.23
74416;SHT31;62850;42.428;25.618;2023-06-19T11:29:21;30.59;44.74
74416;SHT31;62850;42.428;25.618;2023-06-19T11:31:48;30.90;44.36
74416;SHT31;62850;42.428;25.618;2023-06-19T11:34:16;30.90;45.67
74416;SHT31;62850;42.428;25.618;2023-06-19T11:36:42;30.84;44.97
74416;SHT31;62850;42.428;25.618;2023-06-19T11:39:14;30.46;46.55
74416;SHT31;62850;42.428;25.618;2023-06-19T11:41:43;30.26;46.14
74416;SHT31;62850;42.428;25.618;2023-06-19T11:44:10;30.14;46.48
74416;SHT31;62850;42.428;25.618;2023-06-19T11:46:36;29.98;46.70
74416;SHT31;62850;42.428;25.618;2023-06-19T11:49:08;30.06;47.27
74416;SHT31;62850;42.428;25.618;2023-06-19T11:51:35;30.09;47.27
74416;SHT31;62850;42.428;25.618;2023-06-19T11:54:01;30.14;46.79
74416;SHT31;62850;42.428;25.618;2023-06-19T11:56:28;30.56;46.97
74416;SHT31;62850;42.428;25.618;2023-06-19T11:58:54;30.79;45.49
74416;SHT31;62850;42.428;25.618;2023-06-19T12:01:21;30.56;45.77
74416;SHT31;62850;42.428;25.618;2023-06-19T12:03:48;30.40;46.41
74416;SHT31;62850;42.428;25.618;2023-06-19T12:06:16;30.64;45.00
74416;SHT31;62850;42.428;25.618;2023-06-19T12:08:46;30.52;45.66
74416;SHT31;62850;42.428;25.618;2023-06-19T12:11:13;30.25;46.21
74416;SHT31;62850;42.428;25.618;2023-06-19T12:13:42;29.97;46.29
74416;SHT31;62850;42.428;25.618;2023-06-19T12:16:09;29.53;47.20
74416;SHT31;62850;42.428;25.618;2023-06-19T12:18:36;29.26;48.24
74416;SHT31;62850;42.428;25.618;2023-06-19T12:21:02;29.12;48.26
74416;SHT31;62850;42.428;25.618;2023-06-19T12:23:28;28.88;48.56
74416;SHT31;62850;42.428;25.618;2023-06-19T12:25:54;28.65;49.19
74416;SHT31;62850;42.428;25.618;2023-06-19T12:28:20;28.51;49.76
74416;SHT31;62850;42.428;25.618;2023-06-19T12:30:47;28.33;48.68
74416;SHT31;62850;42.428;25.618;2023-06-19T12:33:20;28.21;51.31
74416;SHT31;62850;42.428;25.618;2023-06-19T12:35:47;28.17;51.24
74416;SHT31;62850;42.428;25.618;2023-06-19T12:38:13;28.11;51.42
74416;SHT31;62850;42.428;25.618;2023-06-19T12:40:39;28.04;51.72
74416;SHT31;62850;42.428;25.618;2023-06-19T12:43:05;27.97;52.42
74416;SHT31;62850;42.428;25.618;2023-06-19T12:45:31;27.92;54.07
74416;SHT31;62850;42.428;25.618;2023-06-19T12:48:04;27.80;56.02
74416;SHT31;62850;42.428;25.618;2023-06-19T12:50:30;27.76;57.57
74416;SHT31;62850;42.428;25.618;2023-06-19T12:52:56;27.93;56.72
74416;SHT31;62850;42.428;25.618;2023-06-19T12:55:22;28.25;56.31
74416;SHT31;62850;42.428;25.618;2023-06-19T12:57:48;28.40;53.34
74416;SHT31;62850;42.428;25.618;2023-06-19T13:00:14;28.59;52.00
74416;SHT31;62850;42.428;25.618;2023-06-19T13:02:41;29.03;52.87
74416;SHT31;62850;42.428;25.618;2023-06-19T13:05:09;29.42;50.00
74416;SHT31;62850;42.428;25.618;2023-06-19T13:07:35;29.84;50.07
74416;SHT31;62850;42.428;25.618;2023-06-19T13:10:02;29.85;50.37
74416;SHT31;62850;42.428;25.618;2023-06-19T13:12:28;29.58;50.39
74416;SHT31;62850;42.428;25.618;2023-06-19T13:14:54;29.42;49.76
74416;SHT31;62850;42.428;25.618;2023-06-19T13:17:21;29.26;52.05
74416;SHT31;62850;42.428;25.618;2023-06-19T13:19:48;29.16;50.48
74416;SHT31;62850;42.428;25.618;2023-06-19T13:22:14;29.09;51.41
74416;SHT31;62850;42.428;25.618;2023-06-19T13:24:39;29.02;51.75
74416;SHT31;62850;42.428;25.618;2023-06-19T13:27:05;29.20;51.86
74416;SHT31;62850;42.428;25.618;2023-06-19T13:29:31;29.26;51.55
74416;SHT31;62850;42.428;25.618;2023-06-19T13:31:57;29.65;50.22
74416;SHT31;62850;42.428;25.618;2023-06-19T13:34:24;30.02;50.42
74416;SHT31;62850;42.428;25.618;2023-06-19T13:36:50;30.37;49.06
74416;SHT31;62850;42.428;25.618;2023-06-19T13:39:16;30.69;47.99
74416;SHT31;62850;42.428;25.618;2023-06-19T13:41:46;30.90;47.17
74416;SHT31;62850;42.428;25.618;2023-06-19T13:44:12;31.28;46.19
74416;SHT31;62850;42.428;25.618;2023-06-19T13:46:39;31.35;45.96
74416;SHT31;62850;42.428;25.618;2023-06-19T13:49:05;31.24;45.85
74416;SHT31;62850;42.428;25.618;2023-06-19T13:51:31;31.07;46.24
74416;SHT31;62850;42.428;25.618;2023-06-19T13:53:58;30.83;46.63
74416;SHT31;62850;42.428;25.618;2023-06-19T13:56:24;30.67;46.58
74416;SHT31;62850;42.428;25.618;2023-06-19T13:58:52;30.91;45.55
74416;SHT31;62850;42.428;25.618;2023-06-19T14:01:18;31.21;46.21
74416;SHT31;62850;42.428;25.618;2023-06-19T14:03:44;31.00;47.30
74416;SHT31;62850;42.428;25.618;2023-06-19T14:06:10;30.82;46.21
74416;SHT31;62850;42.428;25.618;2023-06-19T14:08:37;30.74;46.53
74416;SHT31;62850;42.428;25.618;2023-06-19T14:11:05;30.63;46.82
74416;SHT31;62850;42.428;25.618;2023-06-19T14:13:31;30.56;46.05
74416;SHT31;62850;42.428;25.618;2023-06-19T14:15:57;30.70;46.64
74416;SHT31;62850;42.428;25.618;2023-06-19T14:18:23;30.46;47.42
74416;SHT31;62850;42.428;25.618;2023-06-19T14:20:49;30.23;47.29
74416;SHT31;62850;42.428;25.618;2023-06-19T14:23:16;30.53;47.00
74416;SHT31;62850;42.428;25.618;2023-06-19T14:25:42;30.70;46.10
74416;SHT31;62850;42.428;25.618;2023-06-19T14:28:08;30.69;46.70
74416;SHT31;62850;42.428;25.618;2023-06-19T14:30:34;30.63;46.57
74416;SHT31;62850;42.428;25.618;2023-06-19T14:33:00;30.43;46.94
74416;SHT31;62850;42.428;25.618;2023-06-19T14:35:27;30.28;47.83
74416;SHT31;62850;42.428;25.618;2023-06-19T14:37:53;30.19;47.54
74416;SHT31;62850;42.428;25.618;2023-06-19T14:40:19;30.06;47.68
74416;SHT31;62850;42.428;25.618;2023-06-19T14:42:45;29.75;46.83
74416;SHT31;62850;42.428;25.618;2023-06-19T14:45:11;29.70;47.37
74416;SHT31;62850;42.428;25.618;2023-06-19T14:47:37;29.57;48.91
74416;SHT31;62850;42.428;25.618;2023-06-19T14:50:03;29.65;48.84
74416;SHT31;62850;42.428;25.618;2023-06-19T14:52:29;29.92;48.26
74416;SHT31;62850;42.428;25.618;2023-06-19T14:54:56;30.16;47.18
74416;SHT31;62850;42.428;25.618;2023-06-19T14:57:24;30.45;46.98
74416;SHT31;62850;42.428;25.618;2023-06-19T14:59:50;30.60;45.84
74416;SHT31;62850;42.428;25.618;2023-06-19T15:02:17;30.88;45.74
74416;SHT31;62850;42.428;25.618;2023-06-19T15:04:42;31.07;45.07
74416;SHT31;62850;42.428;25.618;2023-06-19T15:07:08;31.20;44.55
74416;SHT31;62850;42.428;25.618;2023-06-19T15:09:34;31.00;43.88
74416;SHT31;62850;42.428;25.618;2023-06-19T15:12:01;31.20;44.39
74416;SHT31;62850;42.428;25.618;2023-06-19T15:14:27;31.28;44.30
74416;SHT31;62850;42.428;25.618;2023-06-19T15:16:54;30.88;39.13